sensor_id;sensor_type;location;lat;lon;timestamp;P1;durP1;ratioP1;P2;durP2;ratioP2
18174;SDS011;9212;50.894;16.714;2022-12-22T00:01:27;2.13;;;1.80;;
18174;SDS011;9212;50.894;16.714;2022-12-22T00:04:13;1.80;;;1.70;;
18174;SDS011;9212;50.894;16.714;2022-12-22T00:06:58;3.00;;;1.90;;
18174;SDS011;9212;50.894;16.714;2022-12-22T00:09:42;1.53;;;1.43;;
18174;SDS011;9212;50.894;16.714;2022-12-22T00:12:27;1.90;;;1.80;;
18174;SDS011;9212;50.894;16.714;2022-12-22T00:15:12;2.43;;;2.23;;
18174;SDS011;9212;50.894;16.714;2022-12-22T00:17:59;2.13;;;1.53;;
18174;SDS011;9212;50.894;16.714;2022-12-22T00:20:45;1.73;;;1.63;;
18174;SDS011;9212;50.894;16.714;2022-12-22T00:23:30;2.17;;;2.00;;
18174;SDS011;9212;50.894;16.714;2022-12-22T00:26:15;2.87;;;1.90;;
18174;SDS011;9212;50.894;16.714;2022-12-22T00:29:00;1.90;;;1.70;;
18174;SDS011;9212;50.894;16.714;2022-12-22T00:31:44;1.73;;;1.63;;
18174;SDS011;9212;50.894;16.714;2022-12-22T00:34:29;2.13;;;1.93;;
18174;SDS011;9212;50.894;16.714;2022-12-22T00:37:24;1.57;;;1.57;;
18174;SDS011;9212;50.894;16.714;2022-12-22T00:40:14;1.97;;;1.70;;
18174;SDS011;9212;50.894;16.714;2022-12-22T00:43:01;2.20;;;1.83;;
18174;SDS011;9212;50.894;16.714;2022-12-22T00:45:45;1.77;;;1.67;;
18174;SDS011;9212;50.894;16.714;2022-12-22T00:48:30;1.87;;;1.73;;
18174;SDS011;9212;50.894;16.714;2022-12-22T00:51:15;1.73;;;1.63;;
18174;SDS011;9212;50.894;16.714;2022-12-22T00:54:01;1.73;;;1.63;;
18174;SDS011;9212;50.894;16.714;2022-12-22T00:56:46;1.90;;;1.80;;
18174;SDS011;9212;50.894;16.714;2022-12-22T00:59:31;1.93;;;1.50;;
18174;SDS011;9212;50.894;16.714;2022-12-22T01:02:15;1.63;;;1.53;;
18174;SDS011;9212;50.894;16.714;2022-12-22T01:05:00;1.97;;;1.70;;
18174;SDS011;9212;50.894;16.714;2022-12-22T01:07:44;1.70;;;1.60;;
18174;SDS011;9212;50.894;16.714;2022-12-22T01:10:30;1.60;;;1.50;;
18174;SDS011;9212;50.894;16.714;2022-12-22T01:13:15;1.50;;;1.40;;
18174;SDS011;9212;50.894;16.714;2022-12-22T01:16:00;2.53;;;1.80;;
18174;SDS011;9212;50.894;16.714;2022-12-22T01:18:44;1.73;;;1.63;;
18174;SDS011;9212;50.894;16.714;2022-12-22T01:21:29;1.60;;;1.50;;
18174;SDS011;9212;50.894;16.714;2022-12-22T01:24:14;1.33;;;1.27;;
18174;SDS011;9212;50.894;16.714;2022-12-22T01:27:02;1.90;;;1.40;;
18174;SDS011;9212;50.894;16.714;2022-12-22T01:29:47;1.30;;;1.20;;
18174;SDS011;9212;50.894;16.714;2022-12-22T01:32:31;1.43;;;1.40;;
18174;SDS011;9212;50.894;16.714;2022-12-22T01:35:17;1.43;;;1.33;;
18174;SDS011;9212;50.894;16.714;2022-12-22T01:38:03;1.93;;;1.50;;
18174;SDS011;9212;50.894;16.714;2022-12-22T01:40:48;1.40;;;1.30;;
18174;SDS011;9212;50.894;16.714;2022-12-22T01:43:35;2.00;;;1.57;;
18174;SDS011;9212;50.894;16.714;2022-12-22T01:46:20;1.20;;;1.20;;
18174;SDS011;9212;50.894;16.714;2022-12-22T01:49:07;1.70;;;1.60;;
18174;SDS011;9212;50.894;16.714;2022-12-22T01:51:53;2.43;;;1.53;;
18174;SDS011;9212;50.894;16.714;2022-12-22T01:54:38;1.60;;;1.50;;
18174;SDS011;9212;50.894;16.714;2022-12-22T01:57:22;2.30;;;1.90;;
18174;SDS011;9212;50.894;16.714;2022-12-22T02:00:09;2.13;;;1.70;;
18174;SDS011;9212;50.894;16.714;2022-12-22T02:02:54;1.43;;;1.40;;
18174;SDS011;9212;50.894;16.714;2022-12-22T02:05:41;1.37;;;1.30;;
18174;SDS011;9212;50.894;16.714;2022-12-22T02:08:36;1.60;;;1.50;;
18174;SDS011;9212;50.894;16.714;2022-12-22T02:11:28;1.77;;;1.67;;
18174;SDS011;9212;50.894;16.714;2022-12-22T02:14:25;1.70;;;1.60;;
18174;SDS011;9212;50.894;16.714;2022-12-22T02:17:20;1.97;;;1.70;;
18174;SDS011;9212;50.894;16.714;2022-12-22T02:20:16;1.77;;;1.67;;
18174;SDS011;9212;50.894;16.714;2022-12-22T02:23:21;1.60;;;1.50;;
18174;SDS011;9212;50.894;16.714;2022-12-22T02:26:20;1.67;;;1.57;;
18174;SDS011;9212;50.894;16.714;2022-12-22T02:29:10;1.67;;;1.57;;
18174;SDS011;9212;50.894;16.714;2022-12-22T02:31:55;1.90;;;1.80;;
18174;SDS011;9212;50.894;16.714;2022-12-22T02:34:40;1.80;;;1.70;;
18174;SDS011;9212;50.894;16.714;2022-12-22T02:37:27;2.00;;;1.90;;
18174;SDS011;9212;50.894;16.714;2022-12-22T02:40:20;1.43;;;1.33;;
18174;SDS011;9212;50.894;16.714;2022-12-22T02:43:14;2.03;;;1.93;;
18174;SDS011;9212;50.894;16.714;2022-12-22T02:46:09;1.90;;;1.80;;
18174;SDS011;9212;50.894;16.714;2022-12-22T02:48:59;2.37;;;1.80;;
18174;SDS011;9212;50.894;16.714;2022-12-22T02:51:50;2.07;;;1.80;;
18174;SDS011;9212;50.894;16.714;2022-12-22T02:54:40;1.70;;;1.57;;
18174;SDS011;9212;50.894;16.714;2022-12-22T02:57:25;2.03;;;1.93;;
18174;SDS011;9212;50.894;16.714;2022-12-22T03:00:12;2.20;;;2.10;;
18174;SDS011;9212;50.894;16.714;2022-12-22T03:02:57;2.03;;;1.93;;
18174;SDS011;9212;50.894;16.714;2022-12-22T03:05:41;2.07;;;1.80;;
18174;SDS011;9212;50.894;16.714;2022-12-22T03:08:25;1.67;;;1.57;;
18174;SDS011;9212;50.894;16.714;2022-12-22T03:11:10;1.60;;;1.43;;
18174;SDS011;9212;50.894;16.714;2022-12-22T03:13:54;1.70;;;1.60;;
18174;SDS011;9212;50.894;16.714;2022-12-22T03:16:40;2.10;;;1.97;;
18174;SDS011;9212;50.894;16.714;2022-12-22T03:19:25;2.00;;;1.80;;
18174;SDS011;9212;50.894;16.714;2022-12-22T03:22:09;1.63;;;1.53;;
18174;SDS011;9212;50.894;16.714;2022-12-22T03:24:54;2.53;;;1.90;;
18174;SDS011;9212;50.894;16.714;2022-12-22T03:27:38;3.13;;;2.23;;
18174;SDS011;9212;50.894;16.714;2022-12-22T03:30:05;1.60;;;1.50;;
18174;SDS011;9212;50.894;16.714;2022-12-22T03:32:35;2.00;;;1.67;;
18174;SDS011;9212;50.894;16.714;2022-12-22T03:35:02;1.80;;;1.67;;
18174;SDS011;9212;50.894;16.714;2022-12-22T03:37:29;2.40;;;2.27;;
18174;SDS011;9212;50.894;16.714;2022-12-22T03:39:56;2.13;;;1.60;;
18174;SDS011;9212;50.894;16.714;2022-12-22T03:42:23;2.07;;;1.93;;
18174;SDS011;9212;50.894;16.714;2022-12-22T03:45:08;3.03;;;1.90;;
18174;SDS011;9212;50.894;16.714;2022-12-22T03:47:54;2.30;;;2.10;;
18174;SDS011;9212;50.894;16.714;2022-12-22T03:50:21;3.17;;;2.47;;
18174;SDS011;9212;50.894;16.714;2022-12-22T03:52:48;2.03;;;1.90;;
18174;SDS011;9212;50.894;16.714;2022-12-22T03:55:15;2.03;;;1.90;;
18174;SDS011;9212;50.894;16.714;2022-12-22T03:57:42;2.30;;;2.10;;
18174;SDS011;9212;50.894;16.714;2022-12-22T04:00:09;2.33;;;2.10;;
18174;SDS011;9212;50.894;16.714;2022-12-22T04:02:37;2.03;;;1.83;;
18174;SDS011;9212;50.894;16.714;2022-12-22T04:05:06;2.13;;;1.83;;
18174;SDS011;9212;50.894;16.714;2022-12-22T04:07:33;2.27;;;2.07;;
18174;SDS011;9212;50.894;16.714;2022-12-22T04:10:00;2.20;;;1.90;;
18174;SDS011;9212;50.894;16.714;2022-12-22T04:12:45;2.10;;;1.90;;
18174;SDS011;9212;50.894;16.714;2022-12-22T04:15:21;1.70;;;1.60;;
18174;SDS011;9212;50.894;16.714;2022-12-22T04:17:48;4.53;;;2.00;;
18174;SDS011;9212;50.894;16.714;2022-12-22T04:20:17;2.47;;;2.23;;
18174;SDS011;9212;50.894;16.714;2022-12-22T04:22:46;3.10;;;2.50;;
18174;SDS011;9212;50.894;16.714;2022-12-22T04:25:13;2.00;;;1.90;;
18174;SDS011;9212;50.894;16.714;2022-12-22T04:27:40;2.33;;;2.00;;
18174;SDS011;9212;50.894;16.714;2022-12-22T04:30:07;2.20;;;2.00;;
18174;SDS011;9212;50.894;16.714;2022-12-22T04:32:35;2.30;;;2.10;;
18174;SDS011;9212;50.894;16.714;2022-12-22T04:35:03;2.30;;;2.10;;
18174;SDS011;9212;50.894;16.714;2022-12-22T04:37:32;2.20;;;2.03;;
18174;SDS011;9212;50.894;16.714;2022-12-22T04:39:59;2.73;;;2.30;;
18174;SDS011;9212;50.894;16.714;2022-12-22T04:42:26;2.67;;;2.27;;
18174;SDS011;9212;50.894;16.714;2022-12-22T04:44:53;2.47;;;2.27;;
18174;SDS011;9212;50.894;16.714;2022-12-22T04:47:20;2.50;;;2.20;;
18174;SDS011;9212;50.894;16.714;2022-12-22T04:49:47;3.77;;;2.70;;
18174;SDS011;9212;50.894;16.714;2022-12-22T04:52:15;3.03;;;2.70;;
18174;SDS011;9212;50.894;16.714;2022-12-22T04:54:43;3.20;;;2.60;;
18174;SDS011;9212;50.894;16.714;2022-12-22T04:57:10;3.53;;;2.53;;
18174;SDS011;9212;50.894;16.714;2022-12-22T04:59:37;3.20;;;2.57;;
18174;SDS011;9212;50.894;16.714;2022-12-22T05:02:05;3.37;;;2.77;;
18174;SDS011;9212;50.894;16.714;2022-12-22T05:04:31;4.03;;;2.90;;
18174;SDS011;9212;50.894;16.714;2022-12-22T05:06:58;3.63;;;2.63;;
18174;SDS011;9212;50.894;16.714;2022-12-22T05:09:25;4.00;;;2.83;;
18174;SDS011;9212;50.894;16.714;2022-12-22T05:11:54;4.67;;;2.83;;
18174;SDS011;9212;50.894;16.714;2022-12-22T05:14:21;6.00;;;3.10;;
18174;SDS011;9212;50.894;16.714;2022-12-22T05:16:48;5.43;;;3.63;;
18174;SDS011;9212;50.894;16.714;2022-12-22T05:19:15;3.97;;;3.13;;
18174;SDS011;9212;50.894;16.714;2022-12-22T05:21:43;5.53;;;3.17;;
18174;SDS011;9212;50.894;16.714;2022-12-22T05:24:10;4.33;;;3.10;;
18174;SDS011;9212;50.894;16.714;2022-12-22T05:26:37;4.97;;;3.07;;
18174;SDS011;9212;50.894;16.714;2022-12-22T05:29:06;4.73;;;3.50;;
18174;SDS011;9212;50.894;16.714;2022-12-22T05:31:33;6.37;;;3.70;;
18174;SDS011;9212;50.894;16.714;2022-12-22T05:34:01;5.77;;;4.00;;
18174;SDS011;9212;50.894;16.714;2022-12-22T05:36:28;4.80;;;3.53;;
18174;SDS011;9212;50.894;16.714;2022-12-22T05:38:55;4.93;;;2.97;;
18174;SDS011;9212;50.894;16.714;2022-12-22T05:41:22;4.47;;;3.27;;
18174;SDS011;9212;50.894;16.714;2022-12-22T05:43:49;4.95;;;3.38;;
18174;SDS011;9212;50.894;16.714;2022-12-22T05:46:17;3.87;;;2.90;;
18174;SDS011;9212;50.894;16.714;2022-12-22T05:48:45;4.63;;;3.13;;
18174;SDS011;9212;50.894;16.714;2022-12-22T05:51:12;5.30;;;3.40;;
18174;SDS011;9212;50.894;16.714;2022-12-22T05:53:39;3.23;;;2.90;;
18174;SDS011;9212;50.894;16.714;2022-12-22T05:56:06;3.73;;;3.30;;
18174;SDS011;9212;50.894;16.714;2022-12-22T05:58:34;3.97;;;2.80;;
18174;SDS011;9212;50.894;16.714;2022-12-22T06:01:03;2.33;;;2.13;;
18174;SDS011;9212;50.894;16.714;2022-12-22T06:03:32;7.23;;;3.20;;
18174;SDS011;9212;50.894;16.714;2022-12-22T06:05:59;3.20;;;2.57;;
18174;SDS011;9212;50.894;16.714;2022-12-22T06:08:27;3.93;;;2.97;;
18174;SDS011;9212;50.894;16.714;2022-12-22T06:10:54;5.97;;;3.13;;
18174;SDS011;9212;50.894;16.714;2022-12-22T06:13:22;3.53;;;2.80;;
18174;SDS011;9212;50.894;16.714;2022-12-22T06:15:50;3.30;;;2.80;;
18174;SDS011;9212;50.894;16.714;2022-12-22T06:18:18;3.50;;;3.00;;
18174;SDS011;9212;50.894;16.714;2022-12-22T06:20:46;2.83;;;2.53;;
18174;SDS011;9212;50.894;16.714;2022-12-22T06:23:16;3.63;;;2.40;;
18174;SDS011;9212;50.894;16.714;2022-12-22T06:25:51;4.97;;;2.50;;
18174;SDS011;9212;50.894;16.714;2022-12-22T06:28:19;3.87;;;2.53;;
18174;SDS011;9212;50.894;16.714;2022-12-22T06:30:46;3.57;;;2.97;;
18174;SDS011;9212;50.894;16.714;2022-12-22T06:33:13;3.43;;;2.70;;
18174;SDS011;9212;50.894;16.714;2022-12-22T06:35:40;5.10;;;3.10;;
18174;SDS011;9212;50.894;16.714;2022-12-22T06:38:09;4.20;;;3.07;;
18174;SDS011;9212;50.894;16.714;2022-12-22T06:40:36;9.13;;;4.50;;
18174;SDS011;9212;50.894;16.714;2022-12-22T06:43:03;5.80;;;3.40;;
18174;SDS011;9212;50.894;16.714;2022-12-22T06:45:33;6.10;;;3.80;;
18174;SDS011;9212;50.894;16.714;2022-12-22T06:48:00;5.80;;;3.80;;
18174;SDS011;9212;50.894;16.714;2022-12-22T06:50:27;4.67;;;3.57;;
18174;SDS011;9212;50.894;16.714;2022-12-22T06:52:54;5.80;;;3.80;;
18174;SDS011;9212;50.894;16.714;2022-12-22T06:55:22;6.07;;;2.70;;
18174;SDS011;9212;50.894;16.714;2022-12-22T06:57:49;10.73;;;5.20;;
18174;SDS011;9212;50.894;16.714;2022-12-22T07:00:17;14.73;;;6.03;;
18174;SDS011;9212;50.894;16.714;2022-12-22T07:02:44;7.60;;;4.60;;
18174;SDS011;9212;50.894;16.714;2022-12-22T07:05:11;6.93;;;4.53;;
18174;SDS011;9212;50.894;16.714;2022-12-22T07:07:39;6.37;;;4.17;;
18174;SDS011;9212;50.894;16.714;2022-12-22T07:10:07;6.20;;;3.87;;
18174;SDS011;9212;50.894;16.714;2022-12-22T07:12:36;12.00;;;4.73;;
18174;SDS011;9212;50.894;16.714;2022-12-22T07:15:03;15.80;;;7.70;;
18174;SDS011;9212;50.894;16.714;2022-12-22T07:17:31;24.60;;;7.27;;
18174;SDS011;9212;50.894;16.714;2022-12-22T07:19:58;13.20;;;6.87;;
18174;SDS011;9212;50.894;16.714;2022-12-22T07:22:25;19.07;;;8.40;;
18174;SDS011;9212;50.894;16.714;2022-12-22T07:24:52;10.60;;;5.73;;
18174;SDS011;9212;50.894;16.714;2022-12-22T07:27:19;16.03;;;7.13;;
18174;SDS011;9212;50.894;16.714;2022-12-22T07:29:48;39.23;;;20.03;;
18174;SDS011;9212;50.894;16.714;2022-12-22T07:32:15;18.90;;;10.03;;
18174;SDS011;9212;50.894;16.714;2022-12-22T07:34:42;9.90;;;6.17;;
18174;SDS011;9212;50.894;16.714;2022-12-22T07:37:09;10.53;;;5.47;;
18174;SDS011;9212;50.894;16.714;2022-12-22T07:39:37;5.50;;;4.07;;
18174;SDS011;9212;50.894;16.714;2022-12-22T07:42:04;7.93;;;5.27;;
18174;SDS011;9212;50.894;16.714;2022-12-22T07:44:50;11.20;;;5.50;;
18174;SDS011;9212;50.894;16.714;2022-12-22T07:47:17;7.20;;;4.43;;
18174;SDS011;9212;50.894;16.714;2022-12-22T07:49:44;8.37;;;5.23;;
18174;SDS011;9212;50.894;16.714;2022-12-22T07:52:28;7.83;;;4.70;;
18174;SDS011;9212;50.894;16.714;2022-12-22T07:54:55;13.33;;;6.23;;
18174;SDS011;9212;50.894;16.714;2022-12-22T07:57:22;19.27;;;7.90;;
18174;SDS011;9212;50.894;16.714;2022-12-22T07:59:51;16.30;;;8.43;;
18174;SDS011;9212;50.894;16.714;2022-12-22T08:02:18;12.40;;;6.50;;
18174;SDS011;9212;50.894;16.714;2022-12-22T08:04:46;14.43;;;7.80;;
18174;SDS011;9212;50.894;16.714;2022-12-22T08:07:13;12.83;;;7.57;;
18174;SDS011;9212;50.894;16.714;2022-12-22T08:09:40;16.57;;;7.23;;
18174;SDS011;9212;50.894;16.714;2022-12-22T08:12:07;12.57;;;5.97;;
18174;SDS011;9212;50.894;16.714;2022-12-22T08:14:34;8.10;;;5.07;;
18174;SDS011;9212;50.894;16.714;2022-12-22T08:17:03;12.07;;;5.00;;
18174;SDS011;9212;50.894;16.714;2022-12-22T08:19:30;9.73;;;4.77;;
18174;SDS011;9212;50.894;16.714;2022-12-22T08:21:57;8.47;;;4.97;;
18174;SDS011;9212;50.894;16.714;2022-12-22T08:24:25;7.87;;;5.07;;
18174;SDS011;9212;50.894;16.714;2022-12-22T08:26:53;9.23;;;5.90;;
18174;SDS011;9212;50.894;16.714;2022-12-22T08:29:23;6.83;;;5.37;;
18174;SDS011;9212;50.894;16.714;2022-12-22T08:31:53;6.43;;;4.10;;
18174;SDS011;9212;50.894;16.714;2022-12-22T08:34:22;9.17;;;4.77;;
18174;SDS011;9212;50.894;16.714;2022-12-22T08:36:50;13.40;;;9.10;;
18174;SDS011;9212;50.894;16.714;2022-12-22T08:39:21;4.37;;;3.70;;
18174;SDS011;9212;50.894;16.714;2022-12-22T08:41:48;3.10;;;2.80;;
18174;SDS011;9212;50.894;16.714;2022-12-22T08:44:16;2.80;;;2.17;;
18174;SDS011;9212;50.894;16.714;2022-12-22T08:46:44;8.93;;;6.23;;
18174;SDS011;9212;50.894;16.714;2022-12-22T08:49:11;5.00;;;3.47;;
18174;SDS011;9212;50.894;16.714;2022-12-22T08:51:40;4.93;;;3.40;;
18174;SDS011;9212;50.894;16.714;2022-12-22T08:54:07;4.33;;;2.60;;
18174;SDS011;9212;50.894;16.714;2022-12-22T08:56:34;4.07;;;2.63;;
18174;SDS011;9212;50.894;16.714;2022-12-22T08:59:02;5.13;;;2.07;;
18174;SDS011;9212;50.894;16.714;2022-12-22T09:01:32;3.27;;;2.40;;
18174;SDS011;9212;50.894;16.714;2022-12-22T09:03:59;2.50;;;2.27;;
18174;SDS011;9212;50.894;16.714;2022-12-22T09:06:27;3.70;;;2.57;;
18174;SDS011;9212;50.894;16.714;2022-12-22T09:08:57;5.70;;;3.57;;
18174;SDS011;9212;50.894;16.714;2022-12-22T09:11:25;4.30;;;3.73;;
18174;SDS011;9212;50.894;16.714;2022-12-22T09:13:53;6.03;;;4.00;;
18174;SDS011;9212;50.894;16.714;2022-12-22T09:16:21;3.20;;;2.90;;
18174;SDS011;9212;50.894;16.714;2022-12-22T09:18:49;5.77;;;3.03;;
18174;SDS011;9212;50.894;16.714;2022-12-22T09:21:18;5.63;;;3.63;;
18174;SDS011;9212;50.894;16.714;2022-12-22T09:23:45;5.07;;;2.63;;
18174;SDS011;9212;50.894;16.714;2022-12-22T09:26:14;3.27;;;2.60;;
18174;SDS011;9212;50.894;16.714;2022-12-22T09:28:43;3.73;;;3.07;;
18174;SDS011;9212;50.894;16.714;2022-12-22T09:31:10;4.77;;;3.17;;
18174;SDS011;9212;50.894;16.714;2022-12-22T09:33:38;3.90;;;3.47;;
18174;SDS011;9212;50.894;16.714;2022-12-22T09:36:05;4.43;;;3.23;;
18174;SDS011;9212;50.894;16.714;2022-12-22T09:38:33;16.80;;;9.80;;
18174;SDS011;9212;50.894;16.714;2022-12-22T09:41:05;6.33;;;4.63;;
18174;SDS011;9212;50.894;16.714;2022-12-22T09:43:35;5.73;;;4.03;;
18174;SDS011;9212;50.894;16.714;2022-12-22T09:46:02;5.70;;;4.30;;
18174;SDS011;9212;50.894;16.714;2022-12-22T09:48:33;3.90;;;2.83;;
18174;SDS011;9212;50.894;16.714;2022-12-22T09:51:02;6.00;;;3.27;;
18174;SDS011;9212;50.894;16.714;2022-12-22T09:53:30;5.47;;;3.40;;
18174;SDS011;9212;50.894;16.714;2022-12-22T09:55:57;5.90;;;3.07;;
18174;SDS011;9212;50.894;16.714;2022-12-22T09:58:25;5.83;;;3.50;;
18174;SDS011;9212;50.894;16.714;2022-12-22T10:00:57;3.60;;;2.83;;
18174;SDS011;9212;50.894;16.714;2022-12-22T10:03:35;3.07;;;2.50;;
18174;SDS011;9212;50.894;16.714;2022-12-22T10:06:09;3.97;;;2.70;;
18174;SDS011;9212;50.894;16.714;2022-12-22T10:08:42;4.37;;;2.60;;
18174;SDS011;9212;50.894;16.714;2022-12-22T10:11:11;5.23;;;3.60;;
18174;SDS011;9212;50.894;16.714;2022-12-22T10:13:39;1.67;;;1.50;;
18174;SDS011;9212;50.894;16.714;2022-12-22T10:16:22;3.53;;;2.83;;
18174;SDS011;9212;50.894;16.714;2022-12-22T10:18:54;2.03;;;1.83;;
18174;SDS011;9212;50.894;16.714;2022-12-22T10:21:23;2.37;;;2.10;;
18174;SDS011;9212;50.894;16.714;2022-12-22T10:23:51;4.20;;;2.80;;
18174;SDS011;9212;50.894;16.714;2022-12-22T10:26:20;3.17;;;2.33;;
18174;SDS011;9212;50.894;16.714;2022-12-22T10:28:50;6.40;;;4.13;;
18174;SDS011;9212;50.894;16.714;2022-12-22T10:31:25;3.80;;;2.87;;
18174;SDS011;9212;50.894;16.714;2022-12-22T10:33:55;3.27;;;2.90;;
18174;SDS011;9212;50.894;16.714;2022-12-22T10:36:34;6.30;;;4.23;;
18174;SDS011;9212;50.894;16.714;2022-12-22T10:39:04;3.47;;;2.83;;
18174;SDS011;9212;50.894;16.714;2022-12-22T10:41:33;4.67;;;3.40;;
18174;SDS011;9212;50.894;16.714;2022-12-22T10:44:03;5.93;;;3.70;;
18174;SDS011;9212;50.894;16.714;2022-12-22T10:46:36;2.83;;;2.47;;
18174;SDS011;9212;50.894;16.714;2022-12-22T10:49:16;2.23;;;2.00;;
18174;SDS011;9212;50.894;16.714;2022-12-22T10:51:46;4.07;;;2.73;;
18174;SDS011;9212;50.894;16.714;2022-12-22T10:54:25;3.60;;;2.70;;
18174;SDS011;9212;50.894;16.714;2022-12-22T10:56:57;2.50;;;2.30;;
18174;SDS011;9212;50.894;16.714;2022-12-22T10:59:30;3.40;;;2.87;;
18174;SDS011;9212;50.894;16.714;2022-12-22T11:05:03;3.13;;;1.80;;
18174;SDS011;9212;50.894;16.714;2022-12-22T11:07:32;2.83;;;2.27;;
18174;SDS011;9212;50.894;16.714;2022-12-22T11:10:01;3.23;;;2.50;;
18174;SDS011;9212;50.894;16.714;2022-12-22T11:12:31;1.90;;;1.80;;
18174;SDS011;9212;50.894;16.714;2022-12-22T11:15:07;2.27;;;2.03;;
18174;SDS011;9212;50.894;16.714;2022-12-22T11:17:44;3.80;;;2.30;;
18174;SDS011;9212;50.894;16.714;2022-12-22T11:20:26;1.90;;;1.70;;
18174;SDS011;9212;50.894;16.714;2022-12-22T11:23:00;2.33;;;2.13;;
18174;SDS011;9212;50.894;16.714;2022-12-22T11:25:35;2.73;;;1.90;;
18174;SDS011;9212;50.894;16.714;2022-12-22T11:28:13;3.53;;;2.20;;
18174;SDS011;9212;50.894;16.714;2022-12-22T11:30:50;3.67;;;2.90;;
18174;SDS011;9212;50.894;16.714;2022-12-22T11:33:28;3.13;;;2.10;;
18174;SDS011;9212;50.894;16.714;2022-12-22T11:36:08;4.10;;;2.67;;
18174;SDS011;9212;50.894;16.714;2022-12-22T11:38:45;2.43;;;2.20;;
18174;SDS011;9212;50.894;16.714;2022-12-22T11:41:24;4.53;;;2.37;;
18174;SDS011;9212;50.894;16.714;2022-12-22T11:44:13;3.67;;;2.87;;
18174;SDS011;9212;50.894;16.714;2022-12-22T11:46:55;2.13;;;2.00;;
18174;SDS011;9212;50.894;16.714;2022-12-22T11:49:35;4.53;;;2.33;;
18174;SDS011;9212;50.894;16.714;2022-12-22T11:52:14;3.17;;;2.33;;
18174;SDS011;9212;50.894;16.714;2022-12-22T11:55:14;2.80;;;2.00;;
18174;SDS011;9212;50.894;16.714;2022-12-22T11:57:50;2.43;;;2.20;;
18174;SDS011;9212;50.894;16.714;2022-12-22T12:00:26;2.87;;;2.13;;
18174;SDS011;9212;50.894;16.714;2022-12-22T12:03:13;2.53;;;2.33;;
18174;SDS011;9212;50.894;16.714;2022-12-22T12:09:00;3.20;;;2.80;;
18174;SDS011;9212;50.894;16.714;2022-12-22T12:11:43;5.83;;;2.40;;
18174;SDS011;9212;50.894;16.714;2022-12-22T12:14:18;3.03;;;2.03;;
18174;SDS011;9212;50.894;16.714;2022-12-22T12:16:54;6.17;;;4.03;;
18174;SDS011;9212;50.894;16.714;2022-12-22T12:19:48;6.10;;;4.10;;
18174;SDS011;9212;50.894;16.714;2022-12-22T12:22:45;3.57;;;2.57;;
18174;SDS011;9212;50.894;16.714;2022-12-22T12:25:32;4.97;;;3.07;;
18174;SDS011;9212;50.894;16.714;2022-12-22T12:28:10;4.00;;;3.30;;
18174;SDS011;9212;50.894;16.714;2022-12-22T12:30:49;2.73;;;2.17;;
18174;SDS011;9212;50.894;16.714;2022-12-22T12:33:20;2.67;;;2.37;;
18174;SDS011;9212;50.894;16.714;2022-12-22T12:35:57;4.20;;;2.67;;
18174;SDS011;9212;50.894;16.714;2022-12-22T12:38:39;2.53;;;2.33;;
18174;SDS011;9212;50.894;16.714;2022-12-22T12:41:15;4.17;;;2.90;;
18174;SDS011;9212;50.894;16.714;2022-12-22T12:43:51;3.60;;;2.23;;
18174;SDS011;9212;50.894;16.714;2022-12-22T12:52:10;14.97;;;5.13;;
18174;SDS011;9212;50.894;16.714;2022-12-22T12:54:38;4.73;;;2.93;;
18174;SDS011;9212;50.894;16.714;2022-12-22T12:57:18;2.17;;;1.93;;
18174;SDS011;9212;50.894;16.714;2022-12-22T12:59:49;5.67;;;2.50;;
18174;SDS011;9212;50.894;16.714;2022-12-22T13:02:33;2.57;;;2.13;;
18174;SDS011;9212;50.894;16.714;2022-12-22T13:05:12;4.57;;;2.93;;
18174;SDS011;9212;50.894;16.714;2022-12-22T13:13:49;2.40;;;2.20;;
18174;SDS011;9212;50.894;16.714;2022-12-22T13:19:13;2.63;;;1.90;;
18174;SDS011;9212;50.894;16.714;2022-12-22T13:21:48;1.83;;;1.73;;
18174;SDS011;9212;50.894;16.714;2022-12-22T13:24:20;2.07;;;1.87;;
18174;SDS011;9212;50.894;16.714;2022-12-22T13:26:53;2.13;;;1.87;;
18174;SDS011;9212;50.894;16.714;2022-12-22T13:29:28;2.40;;;2.10;;
18174;SDS011;9212;50.894;16.714;2022-12-22T13:32:13;2.33;;;2.13;;
18174;SDS011;9212;50.894;16.714;2022-12-22T13:34:46;2.30;;;2.10;;
18174;SDS011;9212;50.894;16.714;2022-12-22T13:37:19;2.40;;;2.20;;
18174;SDS011;9212;50.894;16.714;2022-12-22T13:40:07;2.13;;;1.93;;
18174;SDS011;9212;50.894;16.714;2022-12-22T13:42:37;3.47;;;2.50;;
18174;SDS011;9212;50.894;16.714;2022-12-22T13:45:12;3.00;;;2.03;;
18174;SDS011;9212;50.894;16.714;2022-12-22T13:47:45;3.50;;;2.50;;
18174;SDS011;9212;50.894;16.714;2022-12-22T13:50:17;2.57;;;2.23;;
18174;SDS011;9212;50.894;16.714;2022-12-22T13:52:46;2.63;;;1.80;;
18174;SDS011;9212;50.894;16.714;2022-12-22T13:55:13;3.77;;;2.40;;
18174;SDS011;9212;50.894;16.714;2022-12-22T13:57:43;2.90;;;2.20;;
18174;SDS011;9212;50.894;16.714;2022-12-22T14:00:19;3.10;;;2.10;;
18174;SDS011;9212;50.894;16.714;2022-12-22T14:02:48;2.33;;;2.00;;
18174;SDS011;9212;50.894;16.714;2022-12-22T14:05:16;3.13;;;1.97;;
18174;SDS011;9212;50.894;16.714;2022-12-22T14:07:56;2.30;;;1.50;;
18174;SDS011;9212;50.894;16.714;2022-12-22T14:10:27;2.07;;;1.90;;
18174;SDS011;9212;50.894;16.714;2022-12-22T14:12:58;3.13;;;2.80;;
18174;SDS011;9212;50.894;16.714;2022-12-22T14:15:31;7.60;;;4.23;;
18174;SDS011;9212;50.894;16.714;2022-12-22T14:18:00;5.00;;;3.47;;
18174;SDS011;9212;50.894;16.714;2022-12-22T14:20:28;3.77;;;2.87;;
18174;SDS011;9212;50.894;16.714;2022-12-22T14:23:00;6.83;;;4.03;;
18174;SDS011;9212;50.894;16.714;2022-12-22T14:25:31;3.27;;;2.80;;
18174;SDS011;9212;50.894;16.714;2022-12-22T14:27:59;6.87;;;3.63;;
18174;SDS011;9212;50.894;16.714;2022-12-22T14:30:29;6.33;;;2.70;;
18174;SDS011;9212;50.894;16.714;2022-12-22T14:33:13;3.80;;;2.67;;
18174;SDS011;9212;50.894;16.714;2022-12-22T14:36:02;5.30;;;4.57;;
18174;SDS011;9212;50.894;16.714;2022-12-22T14:38:41;5.67;;;3.53;;
18174;SDS011;9212;50.894;16.714;2022-12-22T14:41:09;5.57;;;3.77;;
18174;SDS011;9212;50.894;16.714;2022-12-22T14:43:57;3.70;;;3.17;;
18174;SDS011;9212;50.894;16.714;2022-12-22T14:46:26;5.30;;;4.30;;
18174;SDS011;9212;50.894;16.714;2022-12-22T14:48:54;6.57;;;4.57;;
18174;SDS011;9212;50.894;16.714;2022-12-22T14:51:23;4.90;;;3.87;;
18174;SDS011;9212;50.894;16.714;2022-12-22T14:53:52;3.40;;;3.10;;
18174;SDS011;9212;50.894;16.714;2022-12-22T14:56:20;7.23;;;4.53;;
18174;SDS011;9212;50.894;16.714;2022-12-22T14:58:48;4.10;;;3.13;;
18174;SDS011;9212;50.894;16.714;2022-12-22T15:01:20;4.37;;;3.00;;
18174;SDS011;9212;50.894;16.714;2022-12-22T15:03:57;6.47;;;4.07;;
18174;SDS011;9212;50.894;16.714;2022-12-22T15:06:32;3.57;;;2.93;;
18174;SDS011;9212;50.894;16.714;2022-12-22T15:11:51;6.13;;;4.03;;
18174;SDS011;9212;50.894;16.714;2022-12-22T15:14:22;9.30;;;4.30;;
18174;SDS011;9212;50.894;16.714;2022-12-22T15:16:53;9.17;;;5.83;;
18174;SDS011;9212;50.894;16.714;2022-12-22T15:19:22;8.67;;;5.00;;
18174;SDS011;9212;50.894;16.714;2022-12-22T15:21:51;7.93;;;5.30;;
18174;SDS011;9212;50.894;16.714;2022-12-22T15:24:18;11.43;;;5.40;;
18174;SDS011;9212;50.894;16.714;2022-12-22T15:26:45;5.63;;;3.40;;
18174;SDS011;9212;50.894;16.714;2022-12-22T15:29:12;8.47;;;5.03;;
18174;SDS011;9212;50.894;16.714;2022-12-22T15:31:40;6.70;;;4.93;;
18174;SDS011;9212;50.894;16.714;2022-12-22T15:34:12;9.10;;;4.63;;
18174;SDS011;9212;50.894;16.714;2022-12-22T15:36:50;9.97;;;4.30;;
18174;SDS011;9212;50.894;16.714;2022-12-22T15:39:18;5.20;;;3.33;;
18174;SDS011;9212;50.894;16.714;2022-12-22T15:41:46;12.37;;;4.90;;
18174;SDS011;9212;50.894;16.714;2022-12-22T15:44:14;7.97;;;4.63;;
18174;SDS011;9212;50.894;16.714;2022-12-22T15:46:42;10.90;;;5.07;;
18174;SDS011;9212;50.894;16.714;2022-12-22T15:49:11;8.60;;;5.33;;
18174;SDS011;9212;50.894;16.714;2022-12-22T15:51:41;13.17;;;6.17;;